createdAt,value
2022-09-15T00:05:01.717Z,77.49
2022-09-15T00:10:06.386Z,77.51
2022-09-15T00:15:09.895Z,77.66
2022-09-15T00:20:12.636Z,77.81
2022-09-15T00:25:15.577Z,78.01
2022-09-15T00:30:18.320Z,78.06
2022-09-15T00:35:21.147Z,77.97
2022-09-15T00:40:24.016Z,77.97
2022-09-15T00:45:27.385Z,77.94
2022-09-15T00:50:32.102Z,77.99
2022-09-15T00:55:54.349Z,78.33
2022-09-15T01:01:01.065Z,78.43
2022-09-15T01:06:20.025Z,78.44
2022-09-15T01:11:22.908Z,78.60
2022-09-15T01:22:07.364Z,78.86
2022-09-15T01:27:41.201Z,78.68
2022-09-15T01:33:06.798Z,78.86
2022-09-15T01:38:32.133Z,78.88
2022-09-15T01:43:40.313Z,79.18
2022-09-15T01:48:43.545Z,78.96
2022-09-15T01:53:47.427Z,79.24
2022-09-15T01:58:51.530Z,79.25
2022-09-15T02:04:18.226Z,79.10
2022-09-15T02:09:54.870Z,79.19
2022-09-15T02:15:08.755Z,79.07
2022-09-15T02:20:23.759Z,79.45
2022-09-15T02:25:32.811Z,79.52
2022-09-15T02:30:41.282Z,79.47
2022-09-15T02:35:44.359Z,79.55
2022-09-15T02:40:48.094Z,79.77
2022-09-15T02:45:51.328Z,79.71
2022-09-15T02:50:54.125Z,79.76
2022-09-15T02:55:58.123Z,79.95
2022-09-15T03:01:08.297Z,80.15
2022-09-15T03:06:19.892Z,80.37
2022-09-15T03:11:26.789Z,80.65
2022-09-15T03:16:32.523Z,80.81
2022-09-15T03:21:35.862Z,80.83
2022-09-15T03:26:38.692Z,80.85
2022-09-15T03:31:41.838Z,81.31
2022-09-15T03:36:44.755Z,81.58
2022-09-15T03:41:47.682Z,81.43
2022-09-15T03:46:51.259Z,81.78
2022-09-15T03:51:54.028Z,81.58
2022-09-15T03:56:57.125Z,81.72
2022-09-15T04:01:59.959Z,81.98
2022-09-15T04:07:02.707Z,81.88
2022-09-15T04:12:06.971Z,81.77
2022-09-15T04:17:10.965Z,81.69
2022-09-15T04:22:17.672Z,82.11
2022-09-15T04:27:21.113Z,82.49
2022-09-15T04:32:23.923Z,82.43
2022-09-15T04:37:26.841Z,82.67
2022-09-15T04:42:29.625Z,83.18
2022-09-15T04:47:32.330Z,83.53
2022-09-15T04:52:35.058Z,83.85
2022-09-15T04:57:37.827Z,84.28
2022-09-15T05:02:40.535Z,84.46
2022-09-15T05:07:43.660Z,84.34
2022-09-15T05:12:46.448Z,84.04
2022-09-15T05:17:49.985Z,84.19
2022-09-15T05:22:52.706Z,83.80
2022-09-15T05:27:55.446Z,83.51
2022-09-15T05:32:58.400Z,83.29
2022-09-15T05:38:01.125Z,82.76
2022-09-15T05:43:03.995Z,82.37
2022-09-15T05:48:06.781Z,81.70
2022-09-15T05:53:12.158Z,81.39
2022-09-15T05:58:23.398Z,80.56
2022-09-15T06:03:30.926Z,72.64
2022-09-15T06:08:36.780Z,63.91
2022-09-15T06:13:40.485Z,56.08
2022-09-15T06:18:43.938Z,51.80
2022-09-15T06:23:53.996Z,50.07
2022-09-15T06:29:02.155Z,52.09
2022-09-15T06:34:11.552Z,53.67
2022-09-15T06:39:14.287Z,55.69
2022-09-15T06:44:17.423Z,57.65
2022-09-15T06:49:21.965Z,58.67
2022-09-15T06:54:24.749Z,59.14
2022-09-15T06:59:27.957Z,59.55
2022-09-15T07:04:38.398Z,60.58
2022-09-15T07:09:42.802Z,60.06
2022-09-15T07:14:47.068Z,54.40
2022-09-15T07:19:50.078Z,48.36
2022-09-15T07:24:52.972Z,46.80
2022-09-15T07:29:56.119Z,44.55
2022-09-15T07:34:59.397Z,47.86
2022-09-15T07:40:04.928Z,49.49
2022-09-15T07:45:08.371Z,48.73
2022-09-15T07:50:11.528Z,48.36
2022-09-15T07:55:15.768Z,46.46
2022-09-15T08:00:18.896Z,44.77
2022-09-15T08:05:26.119Z,43.52
2022-09-15T08:10:28.870Z,42.85
2022-09-15T08:15:31.809Z,42.20
2022-09-15T08:20:34.927Z,41.42
2022-09-15T08:25:40.846Z,41.72
2022-09-15T08:30:46.242Z,41.69
2022-09-15T08:35:49.212Z,43.62
2022-09-15T08:41:00.527Z,44.62
2022-09-15T08:46:09.221Z,45.23
2022-09-15T08:51:20.764Z,46.17
2022-09-15T08:56:23.532Z,47.49
2022-09-15T09:01:45.076Z,48.34
2022-09-15T09:07:14.604Z,48.59
2022-09-15T09:12:44.851Z,48.49
2022-09-15T09:18:27.020Z,48.18
2022-09-15T09:23:43.161Z,46.95
2022-09-15T09:28:50.373Z,47.67
2022-09-15T09:34:16.496Z,48.54
2022-09-15T09:39:19.292Z,48.76
2022-09-15T09:44:32.125Z,48.60
2022-09-15T09:49:40.044Z,48.65
2022-09-15T09:54:42.901Z,49.97
2022-09-15T09:59:47.743Z,51.45
2022-09-15T10:04:50.657Z,51.35
2022-09-15T10:09:59.842Z,52.54
2022-09-15T10:15:06.842Z,53.13
2022-09-15T10:20:25.552Z,53.72
2022-09-15T10:25:49.354Z,53.76
2022-09-15T10:31:03.348Z,54.62
2022-09-15T10:36:08.457Z,55.36
2022-09-15T10:41:31.200Z,56.08
2022-09-15T10:46:50.665Z,56.94
2022-09-15T10:52:13.634Z,57.69
2022-09-15T10:57:35.903Z,57.79
2022-09-15T11:03:09.834Z,58.11
2022-09-15T11:08:20.818Z,57.72
2022-09-15T11:13:26.740Z,57.44
2022-09-15T11:18:50.446Z,57.82
2022-09-15T11:24:34.225Z,58.35
2022-09-15T11:30:02.568Z,58.62
2022-09-15T11:35:38.464Z,57.88
2022-09-15T11:41:19.112Z,57.67
2022-09-15T11:46:51.014Z,57.14
2022-09-15T11:52:23.286Z,57.15
2022-09-15T11:57:32.211Z,56.50
2022-09-15T12:03:13.749Z,56.49
2022-09-15T12:08:27.436Z,56.82
2022-09-15T12:13:31.810Z,55.72
2022-09-15T12:18:54.369Z,54.85
2022-09-15T12:24:46.119Z,55.41
2022-09-15T12:29:57.524Z,54.58
2022-09-15T12:35:15.747Z,53.92
2022-09-15T12:40:33.557Z,53.44
2022-09-15T12:45:37.173Z,52.94
2022-09-15T12:50:43.447Z,53.25
2022-09-15T12:56:20.929Z,52.89
2022-09-15T13:01:24.655Z,52.85
2022-09-15T13:06:29.975Z,52.53
2022-09-15T13:11:47.545Z,51.60
2022-09-15T13:17:06.701Z,50.70
2022-09-15T13:22:12.152Z,50.27
2022-09-15T13:27:22.423Z,50.90
2022-09-15T13:32:40.348Z,50.42
2022-09-15T13:38:32.272Z,50.98
2022-09-15T13:44:18.003Z,52.16
2022-09-15T13:49:49.446Z,52.08
2022-09-15T13:55:21.769Z,52.22
2022-09-15T14:00:24.748Z,52.04
2022-09-15T14:05:31.050Z,52.29
2022-09-15T14:10:42.134Z,51.45
2022-09-15T14:16:02.299Z,51.07
2022-09-15T14:21:06.076Z,51.20
2022-09-15T14:26:14.932Z,52.49
2022-09-15T14:31:26.521Z,54.35
2022-09-15T14:36:33.708Z,55.30
2022-09-15T14:41:37.131Z,56.21
2022-09-15T14:46:39.936Z,57.11
2022-09-15T14:51:49.141Z,57.51
2022-09-15T14:56:54.199Z,58.16
2022-09-15T15:02:06.259Z,58.72
2022-09-15T15:07:20.123Z,58.40
2022-09-15T15:12:36.226Z,58.66
2022-09-15T15:17:51.102Z,59.36
2022-09-15T15:23:24.577Z,60.05
2022-09-15T15:28:37.761Z,60.33
2022-09-15T15:34:24.270Z,60.10
2022-09-15T15:39:27.090Z,59.78
2022-09-15T15:44:31.476Z,59.22
2022-09-15T15:49:34.708Z,59.01
2022-09-15T15:54:41.862Z,58.65
2022-09-15T15:59:46.950Z,58.04
2022-09-15T16:04:49.913Z,58.05
2022-09-15T16:09:56.430Z,57.78
2022-09-15T16:14:59.162Z,58.04
2022-09-15T16:20:02.432Z,57.98
2022-09-15T16:25:21.510Z,58.38
2022-09-15T16:30:24.293Z,58.39
2022-09-15T16:35:46.017Z,58.56
2022-09-15T16:40:51.435Z,58.68
2022-09-15T16:45:55.240Z,58.53
2022-09-15T16:56:21.120Z,58.95
2022-09-15T17:01:25.619Z,59.32
2022-09-15T17:06:29.094Z,59.92
2022-09-15T17:11:32.313Z,60.47
2022-09-15T17:16:35.083Z,61.05
2022-09-15T17:21:37.859Z,61.07
2022-09-15T17:26:41.061Z,60.68
2022-09-15T17:31:43.811Z,60.17
2022-09-15T17:36:46.721Z,60.32
2022-09-15T17:41:49.516Z,60.52
2022-09-15T17:46:53.733Z,61.04
2022-09-15T17:51:56.518Z,61.59
2022-09-15T17:56:59.649Z,62.04
2022-09-15T18:02:02.557Z,62.61
2022-09-15T18:07:11.629Z,63.11
2022-09-15T18:12:14.777Z,64.01
2022-09-15T18:17:17.718Z,64.28
2022-09-15T18:22:23.029Z,64.65
2022-09-15T18:27:25.950Z,65.21
2022-09-15T18:32:28.741Z,65.90
2022-09-15T18:37:31.621Z,66.00
2022-09-15T18:42:35.396Z,66.22
2022-09-15T18:47:38.604Z,66.56
2022-09-15T18:52:41.957Z,67.05
2022-09-15T18:57:45.466Z,67.56
2022-09-15T19:02:48.864Z,67.89
2022-09-15T19:07:51.663Z,68.30
2022-09-15T19:12:54.777Z,68.38
2022-09-15T19:17:57.772Z,68.96
2022-09-15T19:23:00.610Z,69.39
2022-09-15T19:28:03.849Z,69.96
2022-09-15T19:33:06.954Z,70.60
2022-09-15T19:38:09.783Z,71.06
2022-09-15T19:43:12.651Z,71.55
2022-09-15T19:48:15.543Z,72.13
2022-09-15T19:53:18.744Z,72.28
2022-09-15T19:58:21.664Z,72.51
2022-09-15T20:03:29.348Z,72.75
2022-09-15T20:08:32.838Z,72.90
2022-09-15T20:13:41.420Z,73.62
2022-09-15T20:18:48.843Z,73.83
2022-09-15T20:23:52.929Z,74.03
2022-09-15T20:28:55.658Z,74.79
2022-09-15T20:34:00.973Z,74.92
2022-09-15T20:39:06.617Z,75.06
2022-09-15T20:44:09.585Z,75.36
2022-09-15T20:49:12.794Z,75.65
2022-09-15T20:54:15.639Z,75.89
2022-09-15T20:59:19.488Z,76.09
2022-09-15T21:04:22.351Z,76.56
2022-09-15T21:09:25.675Z,76.88
2022-09-15T21:14:28.455Z,77.18
2022-09-15T21:19:31.661Z,77.26
2022-09-15T21:24:34.350Z,77.36
2022-09-15T21:29:37.189Z,77.65
2022-09-15T21:34:39.955Z,77.93
2022-09-15T21:39:43.300Z,78.27
2022-09-15T21:44:46.116Z,78.12
2022-09-15T21:49:49.225Z,78.15
2022-09-15T21:54:52.024Z,78.41
2022-09-15T21:59:54.793Z,78.83
2022-09-15T22:04:59.758Z,78.73
2022-09-15T22:10:02.447Z,79.12
2022-09-15T22:15:06.309Z,79.19
2022-09-15T22:20:09.462Z,79.51
2022-09-15T22:25:12.441Z,79.59
2022-09-15T22:30:15.185Z,79.79
2022-09-15T22:35:18.021Z,79.81
2022-09-15T22:40:20.977Z,79.56
2022-09-15T22:45:23.781Z,79.85
2022-09-15T22:50:26.487Z,80.45
2022-09-15T22:55:32.416Z,81.69
2022-09-15T23:00:38.296Z,81.83
2022-09-15T23:05:41.395Z,81.83
2022-09-15T23:10:44.098Z,81.97
2022-09-15T23:15:49.116Z,81.75
2022-09-15T23:21:07.446Z,81.49
2022-09-15T23:26:12.144Z,81.10
2022-09-15T23:31:15.733Z,81.00
2022-09-15T23:36:22.018Z,81.49
2022-09-15T23:41:24.868Z,81.91
2022-09-15T23:46:27.607Z,82.43
2022-09-15T23:51:31.199Z,83.17
2022-09-15T23:56:34.047Z,83.52
